createdAt,value
2018-05-15T00:00:04.854Z,1003.93
2018-05-15T00:01:04.734Z,1003.93
2018-05-15T00:02:04.810Z,1003.92
2018-05-15T00:03:04.816Z,1003.91
2018-05-15T00:04:04.804Z,1003.91
2018-05-15T00:05:04.863Z,1003.94
2018-05-15T00:06:04.873Z,1003.92
2018-05-15T00:07:04.842Z,1003.93
2018-05-15T00:08:04.878Z,1003.95
2018-05-15T00:09:04.779Z,1003.94
2018-05-15T00:10:04.842Z,1003.90
2018-05-15T00:11:04.778Z,1003.89
2018-05-15T00:12:04.847Z,1003.92
2018-05-15T00:13:04.790Z,1003.94
2018-05-15T00:14:04.846Z,1003.93
2018-05-15T00:15:04.848Z,1003.95
2018-05-15T00:16:04.854Z,1003.92
2018-05-15T00:17:04.779Z,1003.92
2018-05-15T00:18:04.787Z,1003.97
2018-05-15T00:19:04.820Z,1003.96
2018-05-15T00:20:04.767Z,1003.94
2018-05-15T00:21:04.884Z,1003.94
2018-05-15T00:22:04.898Z,1003.93
2018-05-15T00:23:04.816Z,1003.95
2018-05-15T00:24:04.873Z,1003.91
2018-05-15T00:25:04.851Z,1003.89
2018-05-15T00:26:04.758Z,1003.89
2018-05-15T00:27:04.813Z,1003.87
2018-05-15T00:28:04.822Z,1003.84
2018-05-15T00:29:04.799Z,1003.86
2018-05-15T00:30:04.854Z,1003.88
2018-05-15T00:31:04.854Z,1003.84
2018-05-15T00:32:04.860Z,1003.89
2018-05-15T00:33:04.884Z,1003.84
2018-05-15T00:34:04.758Z,1003.84
2018-05-15T00:35:04.831Z,1003.87
2018-05-15T00:36:04.838Z,1003.90
2018-05-15T00:37:04.813Z,1003.89
2018-05-15T00:38:04.779Z,1003.91
2018-05-15T00:39:04.826Z,1003.86
2018-05-15T00:40:04.835Z,1003.89
2018-05-15T00:41:04.765Z,1003.85
2018-05-15T00:42:04.791Z,1003.82
2018-05-15T00:43:04.893Z,1003.88
2018-05-15T00:44:04.903Z,1003.90
2018-05-15T00:45:04.841Z,1003.87
2018-05-15T00:46:04.864Z,1003.84
2018-05-15T00:47:04.829Z,1003.86
2018-05-15T00:48:04.862Z,1003.88
2018-05-15T00:49:04.870Z,1003.93
2018-05-15T00:50:04.755Z,1003.91
2018-05-15T00:51:04.869Z,1003.97
2018-05-15T00:52:04.804Z,1003.97
2018-05-15T00:53:04.894Z,1003.96
2018-05-15T00:54:04.835Z,1004.00
2018-05-15T00:55:04.880Z,1003.98
2018-05-15T00:56:04.888Z,1003.98
2018-05-15T00:57:04.881Z,1003.98
2018-05-15T00:58:04.876Z,1003.97
2018-05-15T00:59:04.895Z,1003.98
2018-05-15T01:00:04.898Z,1003.96
2018-05-15T01:01:04.903Z,1003.96
2018-05-15T01:02:04.771Z,1003.95
2018-05-15T01:03:04.913Z,1003.94
2018-05-15T01:04:04.898Z,1003.96
2018-05-15T01:05:04.904Z,1003.92
2018-05-15T01:06:04.957Z,1003.95
2018-05-15T01:07:04.912Z,1003.96
2018-05-15T01:08:04.876Z,1004.01
2018-05-15T01:09:04.841Z,1003.99
2018-05-15T01:10:04.800Z,1004.00
2018-05-15T01:11:04.803Z,1004.01
2018-05-15T01:12:04.879Z,1004.01
2018-05-15T01:13:04.818Z,1003.99
2018-05-15T01:14:04.862Z,1004.00
2018-05-15T01:15:04.899Z,1004.03
2018-05-15T01:16:04.880Z,1004.04
2018-05-15T01:17:04.914Z,1004.04
2018-05-15T01:18:04.854Z,1004.03
2018-05-15T01:19:04.887Z,1004.02
2018-05-15T01:20:04.824Z,1004.05
2018-05-15T01:21:04.826Z,1004.02
2018-05-15T01:22:04.889Z,1004.04
2018-05-15T01:23:04.820Z,1004.05
2018-05-15T01:24:04.889Z,1004.12
2018-05-15T01:25:04.829Z,1004.11
2018-05-15T01:26:04.863Z,1004.11
2018-05-15T01:27:04.827Z,1004.06
2018-05-15T01:28:04.912Z,1004.09
2018-05-15T01:29:04.884Z,1004.10
2018-05-15T01:30:04.797Z,1004.11
2018-05-15T01:31:04.764Z,1004.12
2018-05-15T01:32:04.887Z,1004.13
2018-05-15T01:33:04.880Z,1004.12
2018-05-15T01:34:04.816Z,1004.08
2018-05-15T01:35:04.844Z,1004.11
2018-05-15T01:36:04.804Z,1004.07
2018-05-15T01:37:04.844Z,1004.09
2018-05-15T01:38:04.891Z,1004.08
2018-05-15T01:39:04.888Z,1004.09
2018-05-15T01:40:04.861Z,1004.12
2018-05-15T01:41:04.865Z,1004.07
2018-05-15T01:42:04.802Z,1004.10
2018-05-15T01:43:04.838Z,1004.09
2018-05-15T01:44:04.767Z,1004.10
2018-05-15T01:45:04.891Z,1004.09
2018-05-15T01:46:04.762Z,1004.15
2018-05-15T01:47:04.843Z,1004.16
2018-05-15T01:48:04.891Z,1004.15
2018-05-15T01:49:04.901Z,1004.14
2018-05-15T01:50:04.822Z,1004.14
2018-05-15T01:51:04.904Z,1004.14
2018-05-15T01:52:04.902Z,1004.11
2018-05-15T01:53:04.828Z,1004.11
2018-05-15T01:54:04.827Z,1004.10
2018-05-15T01:55:04.827Z,1004.06
2018-05-15T01:56:04.900Z,1004.09
2018-05-15T01:57:04.848Z,1004.12
2018-05-15T01:58:04.782Z,1004.08
2018-05-15T01:59:04.903Z,1004.08
2018-05-15T02:00:04.841Z,1004.04
2018-05-15T02:01:04.775Z,1004.07
2018-05-15T02:02:04.851Z,1004.05
2018-05-15T02:03:04.901Z,1004.02
2018-05-15T02:04:04.780Z,1004.07
2018-05-15T02:05:04.846Z,1004.06
2018-05-15T02:06:04.845Z,1004.04
2018-05-15T02:07:04.902Z,1004.00
2018-05-15T02:08:04.852Z,1004.01
2018-05-15T02:09:04.916Z,1004.02
2018-05-15T02:10:04.918Z,1003.99
2018-05-15T02:11:04.928Z,1003.99
2018-05-15T02:12:04.938Z,1003.98
2018-05-15T02:13:04.923Z,1004.03
2018-05-15T02:14:04.819Z,1004.02
2018-05-15T02:15:04.953Z,1003.98
2018-05-15T02:16:04.982Z,1003.97
2018-05-15T02:17:04.912Z,1003.98
2018-05-15T02:18:04.921Z,1003.95
2018-05-15T02:19:04.890Z,1003.93
2018-05-15T02:20:04.965Z,1004.00
2018-05-15T02:21:04.953Z,1003.94
2018-05-15T02:22:05.003Z,1003.94
2018-05-15T02:23:04.850Z,1003.98
2018-05-15T02:24:04.927Z,1003.99
2018-05-15T02:25:04.906Z,1004.02
2018-05-15T02:26:04.902Z,1003.98
2018-05-15T02:27:04.928Z,1004.00
2018-05-15T02:28:04.849Z,1003.99
2018-05-15T02:29:04.962Z,1003.98
2018-05-15T02:30:04.949Z,1004.03
2018-05-15T02:31:04.918Z,1004.02
2018-05-15T02:32:04.874Z,1004.02
2018-05-15T02:33:04.871Z,1004.04
2018-05-15T02:34:04.867Z,1004.07
2018-05-15T02:35:04.934Z,1004.05
2018-05-15T02:36:04.943Z,1004.06
2018-05-15T02:37:04.905Z,1004.08
2018-05-15T02:38:04.943Z,1004.07
2018-05-15T02:39:04.917Z,1004.10
2018-05-15T02:40:04.895Z,1004.08
2018-05-15T02:41:04.972Z,1004.08
2018-05-15T02:42:04.922Z,1004.09
2018-05-15T02:43:04.907Z,1004.09
2018-05-15T02:44:04.901Z,1004.09
2018-05-15T02:45:04.975Z,1004.13
2018-05-15T02:46:04.913Z,1004.07
2018-05-15T02:47:04.964Z,1004.13
2018-05-15T02:48:04.956Z,1004.17
2018-05-15T02:49:04.911Z,1004.18
2018-05-15T02:50:04.972Z,1004.15
2018-05-15T02:51:04.960Z,1004.14
2018-05-15T02:52:04.871Z,1004.16
2018-05-15T02:53:04.785Z,1004.13
2018-05-15T02:54:04.946Z,1004.16
2018-05-15T02:55:04.949Z,1004.12
2018-05-15T02:56:04.902Z,1004.13
2018-05-15T02:57:04.948Z,1004.16
2018-05-15T02:58:04.928Z,1004.19
2018-05-15T02:59:04.990Z,1004.18
2018-05-15T03:00:04.890Z,1004.17
2018-05-15T03:01:04.921Z,1004.16
2018-05-15T03:02:04.912Z,1004.15
2018-05-15T03:03:04.971Z,1004.12
2018-05-15T03:04:04.995Z,1004.13
2018-05-15T03:05:04.985Z,1004.09
2018-05-15T03:06:05.003Z,1004.11
2018-05-15T03:07:04.913Z,1004.08
2018-05-15T03:08:04.959Z,1004.09
2018-05-15T03:09:04.991Z,1004.09
2018-05-15T03:10:04.981Z,1004.09
2018-05-15T03:11:04.931Z,1004.07
2018-05-15T03:12:04.899Z,1004.08
2018-05-15T03:13:04.958Z,1004.10
2018-05-15T03:14:04.916Z,1004.09
2018-05-15T03:15:04.937Z,1004.08
2018-05-15T03:16:04.935Z,1004.04
2018-05-15T03:17:04.909Z,1004.05
2018-05-15T03:18:04.869Z,1004.05
2018-05-15T03:19:04.899Z,1004.04
2018-05-15T03:20:04.957Z,1004.09
2018-05-15T03:21:04.967Z,1004.10
2018-05-15T03:22:04.918Z,1004.08
2018-05-15T03:23:04.897Z,1004.11
2018-05-15T03:24:04.963Z,1004.15
2018-05-15T03:25:04.898Z,1004.18
2018-05-15T03:26:04.966Z,1004.15
2018-05-15T03:27:04.971Z,1004.17
2018-05-15T03:28:04.902Z,1004.15
2018-05-15T03:29:04.973Z,1004.21
2018-05-15T03:30:04.912Z,1004.16
2018-05-15T03:31:04.905Z,1004.18
2018-05-15T03:32:04.971Z,1004.17
2018-05-15T03:33:04.908Z,1004.18
2018-05-15T03:34:04.911Z,1004.19
2018-05-15T03:35:04.979Z,1004.20
2018-05-15T03:36:04.995Z,1004.21
2018-05-15T03:37:04.993Z,1004.21
2018-05-15T03:38:04.910Z,1004.21
2018-05-15T03:39:04.935Z,1004.19
2018-05-15T03:40:04.980Z,1004.19
2018-05-15T03:41:04.916Z,1004.18
2018-05-15T03:42:04.913Z,1004.23
2018-05-15T03:43:04.979Z,1004.28
2018-05-15T03:44:04.976Z,1004.28
2018-05-15T03:45:04.981Z,1004.29
2018-05-15T03:46:04.980Z,1004.29
2018-05-15T03:47:05.009Z,1004.33
2018-05-15T03:48:04.984Z,1004.32
2018-05-15T03:49:04.906Z,1004.32
2018-05-15T03:50:05.009Z,1004.32
2018-05-15T03:51:04.986Z,1004.31
2018-05-15T03:52:04.953Z,1004.30
2018-05-15T03:53:05.009Z,1004.31
2018-05-15T03:54:05.002Z,1004.36
2018-05-15T03:55:04.985Z,1004.30
2018-05-15T03:56:04.945Z,1004.32
2018-05-15T03:57:04.986Z,1004.37
2018-05-15T03:58:04.886Z,1004.38
2018-05-15T03:59:05.008Z,1004.42
2018-05-15T04:00:04.986Z,1004.45
2018-05-15T04:01:04.991Z,1004.45
2018-05-15T04:02:04.925Z,1004.42
2018-05-15T04:03:04.986Z,1004.47
2018-05-15T04:04:04.967Z,1004.46
2018-05-15T04:05:04.926Z,1004.50
2018-05-15T04:06:04.958Z,1004.50
2018-05-15T04:07:04.890Z,1004.58
2018-05-15T04:08:05.012Z,1004.56
2018-05-15T04:09:04.917Z,1004.57
2018-05-15T04:10:04.916Z,1004.60
2018-05-15T04:11:05.183Z,1004.61
2018-05-15T04:12:05.016Z,1004.61
2018-05-15T04:13:05.029Z,1004.60
2018-05-15T04:14:04.955Z,1004.60
2018-05-15T04:15:04.962Z,1004.63
2018-05-15T04:16:04.964Z,1004.65
2018-05-15T04:17:04.923Z,1004.68
2018-05-15T04:18:04.905Z,1004.66
2018-05-15T04:19:04.934Z,1004.62
2018-05-15T04:20:04.901Z,1004.60
2018-05-15T04:21:04.954Z,1004.63
2018-05-15T04:22:04.926Z,1004.63
2018-05-15T04:23:04.984Z,1004.67
2018-05-15T04:24:04.963Z,1004.64
2018-05-15T04:25:04.867Z,1004.63
2018-05-15T04:26:04.937Z,1004.68
2018-05-15T04:27:04.938Z,1004.69
2018-05-15T04:28:04.909Z,1004.70
2018-05-15T04:29:04.939Z,1004.72
2018-05-15T04:30:04.943Z,1004.70
2018-05-15T04:31:04.957Z,1004.67
2018-05-15T04:32:05.012Z,1004.73
2018-05-15T04:33:04.942Z,1004.72
2018-05-15T04:34:04.945Z,1004.67
2018-05-15T04:35:04.990Z,1004.71
2018-05-15T04:36:05.007Z,1004.70
2018-05-15T04:37:04.946Z,1004.79
2018-05-15T04:38:05.013Z,1004.72
2018-05-15T04:39:04.990Z,1004.72
2018-05-15T04:40:04.922Z,1004.76
2018-05-15T04:41:04.917Z,1004.80
2018-05-15T04:42:04.982Z,1004.81
2018-05-15T04:43:05.033Z,1004.84
2018-05-15T04:44:04.937Z,1004.83
2018-05-15T04:45:04.940Z,1004.75
2018-05-15T04:46:05.055Z,1004.79
2018-05-15T04:47:05.052Z,1004.75
2018-05-15T04:48:05.055Z,1004.77
2018-05-15T04:49:05.018Z,1004.78
2018-05-15T04:50:05.045Z,1004.78
2018-05-15T04:51:04.998Z,1004.80
2018-05-15T04:52:04.977Z,1004.81
2018-05-15T04:53:05.023Z,1004.81
2018-05-15T04:54:05.001Z,1004.81
2018-05-15T04:55:05.045Z,1004.80
2018-05-15T04:56:04.926Z,1004.80
2018-05-15T04:57:05.021Z,1004.83
2018-05-15T04:58:04.931Z,1004.81
2018-05-15T04:59:04.926Z,1004.85
2018-05-15T05:00:04.897Z,1004.89
2018-05-15T05:01:05.018Z,1004.87
2018-05-15T05:02:05.017Z,1004.87
2018-05-15T05:03:04.933Z,1004.88
2018-05-15T05:04:05.027Z,1004.89
2018-05-15T05:05:04.950Z,1004.88
2018-05-15T05:06:04.933Z,1004.90
2018-05-15T05:07:04.956Z,1004.84
2018-05-15T05:08:05.041Z,1004.87
2018-05-15T05:09:04.966Z,1004.86
2018-05-15T05:10:04.963Z,1004.87
2018-05-15T05:11:05.041Z,1004.85
2018-05-15T05:12:05.035Z,1004.86
2018-05-15T05:13:05.035Z,1004.85
2018-05-15T05:14:05.042Z,1004.84
2018-05-15T05:15:04.929Z,1004.87
2018-05-15T05:16:04.986Z,1004.87
2018-05-15T05:17:04.970Z,1004.86
2018-05-15T05:18:04.920Z,1004.89
2018-05-15T05:19:05.036Z,1004.89
2018-05-15T05:20:04.961Z,1004.94
2018-05-15T05:21:05.103Z,1004.95
2018-05-15T05:22:05.041Z,1004.93
2018-05-15T05:23:05.019Z,1004.92
2018-05-15T05:24:05.043Z,1004.94
2018-05-15T05:25:05.081Z,1004.91
2018-05-15T05:26:04.968Z,1004.92
2018-05-15T05:27:05.110Z,1004.92
2018-05-15T05:28:05.073Z,1004.96
2018-05-15T05:29:04.965Z,1004.98
2018-05-15T05:30:04.951Z,1004.92
2018-05-15T05:31:04.992Z,1004.97
2018-05-15T05:32:04.951Z,1004.99
2018-05-15T05:33:05.043Z,1005.01
2018-05-15T05:34:05.050Z,1005.04
2018-05-15T05:35:05.004Z,1005.03
2018-05-15T05:36:05.038Z,1005.01
2018-05-15T05:37:04.953Z,1005.05
2018-05-15T05:38:04.916Z,1005.10
2018-05-15T05:39:05.039Z,1005.12
2018-05-15T05:40:04.990Z,1005.10
2018-05-15T05:41:04.951Z,1005.12
2018-05-15T05:42:04.982Z,1005.12
2018-05-15T05:43:04.989Z,1005.13
2018-05-15T05:44:04.928Z,1005.13
2018-05-15T05:45:04.927Z,1005.10
2018-05-15T05:46:04.973Z,1005.08
2018-05-15T05:47:05.011Z,1005.06
2018-05-15T05:48:05.011Z,1005.04
2018-05-15T05:49:05.070Z,1005.05
2018-05-15T05:50:05.060Z,1005.07
2018-05-15T05:51:05.073Z,1005.09
2018-05-15T05:52:05.140Z,1005.08
2018-05-15T05:53:04.998Z,1005.09
2018-05-15T05:54:05.063Z,1005.09
2018-05-15T05:55:04.996Z,1005.10
2018-05-15T05:56:05.064Z,1005.07
2018-05-15T05:57:05.062Z,1005.09
2018-05-15T05:58:05.095Z,1005.15
2018-05-15T05:59:05.082Z,1005.10
2018-05-15T06:00:04.988Z,1005.08
2018-05-15T06:01:05.082Z,1005.09
2018-05-15T06:02:04.989Z,1005.08
2018-05-15T06:03:05.087Z,1005.10
2018-05-15T06:04:05.042Z,1005.12
2018-05-15T06:05:05.091Z,1005.15
2018-05-15T06:06:05.048Z,1005.18
2018-05-15T06:07:05.034Z,1005.20
2018-05-15T06:08:05.101Z,1005.18
2018-05-15T06:09:05.069Z,1005.19
2018-05-15T06:10:04.981Z,1005.22
2018-05-15T06:11:05.097Z,1005.22
2018-05-15T06:12:04.974Z,1005.22
2018-05-15T06:13:05.023Z,1005.20
2018-05-15T06:14:05.040Z,1005.22
2018-05-15T06:15:05.076Z,1005.21
2018-05-15T06:16:05.107Z,1005.24
2018-05-15T06:17:05.099Z,1005.26
2018-05-15T06:18:05.108Z,1005.24
2018-05-15T06:19:05.107Z,1005.23
2018-05-15T06:20:05.017Z,1005.25
2018-05-15T06:21:05.174Z,1005.24
2018-05-15T06:22:05.015Z,1005.23
2018-05-15T06:23:04.983Z,1005.24
2018-05-15T06:24:05.068Z,1005.20
2018-05-15T06:25:05.071Z,1005.22
2018-05-15T06:26:05.059Z,1005.20
2018-05-15T06:27:04.989Z,1005.28
2018-05-15T06:28:05.077Z,1005.24
2018-05-15T06:29:04.991Z,1005.23
2018-05-15T06:30:05.002Z,1005.24
2018-05-15T06:31:05.006Z,1005.26
2018-05-15T06:32:04.989Z,1005.26
2018-05-15T06:33:04.990Z,1005.26
2018-05-15T06:34:04.992Z,1005.22
2018-05-15T06:35:04.996Z,1005.24
2018-05-15T06:36:05.075Z,1005.20
2018-05-15T06:37:05.081Z,1005.19
2018-05-15T06:38:04.979Z,1005.21
2018-05-15T06:39:05.087Z,1005.21
2018-05-15T06:40:05.090Z,1005.20
2018-05-15T06:41:05.025Z,1005.23
2018-05-15T06:42:05.095Z,1005.24
2018-05-15T06:43:05.031Z,1005.23
2018-05-15T06:44:05.027Z,1005.27
2018-05-15T06:45:05.160Z,1005.27
2018-05-15T06:46:05.031Z,1005.27
2018-05-15T06:47:05.095Z,1005.29
2018-05-15T06:48:05.139Z,1005.27
2018-05-15T06:49:05.109Z,1005.27
2018-05-15T06:50:05.053Z,1005.26
2018-05-15T06:54:05.008Z,1005.18
2018-05-15T06:55:05.098Z,1005.21
2018-05-15T06:56:05.084Z,1005.20
2018-05-15T06:57:05.078Z,1005.21
2018-05-15T06:58:05.071Z,1005.21
2018-05-15T06:59:05.063Z,1005.16
2018-05-15T07:00:05.040Z,1005.20
2018-05-15T07:01:05.101Z,1005.18
2018-05-15T07:02:04.972Z,1005.21
2018-05-15T07:03:04.983Z,1005.26
2018-05-15T07:04:05.013Z,1005.27
2018-05-15T07:05:05.100Z,1005.30
2018-05-15T07:06:05.046Z,1005.31
2018-05-15T07:07:04.980Z,1005.29
2018-05-15T07:08:05.054Z,1005.26
2018-05-15T07:09:05.017Z,1005.27
2018-05-15T07:10:05.041Z,1005.24
2018-05-15T07:11:05.102Z,1005.22
2018-05-15T07:12:05.099Z,1005.20
2018-05-15T07:13:05.105Z,1005.21
2018-05-15T07:14:05.148Z,1005.20
2018-05-15T07:15:05.108Z,1005.20
2018-05-15T07:16:05.102Z,1005.17
2018-05-15T07:17:05.099Z,1005.13
2018-05-15T07:18:05.051Z,1005.12
2018-05-15T07:19:05.050Z,1005.16
2018-05-15T07:20:05.144Z,1005.10
2018-05-15T07:21:05.136Z,1005.14
2018-05-15T07:22:05.143Z,1005.13
2018-05-15T07:23:05.134Z,1005.13
2018-05-15T07:24:05.073Z,1005.14
2018-05-15T07:25:05.141Z,1005.15
2018-05-15T07:26:05.105Z,1005.09
2018-05-15T07:27:05.029Z,1005.11
2018-05-15T07:28:05.159Z,1005.06
2018-05-15T07:29:05.081Z,1005.07
2018-05-15T07:30:05.152Z,1005.07
2018-05-15T07:31:05.124Z,1005.06
2018-05-15T07:32:05.092Z,1005.07
2018-05-15T07:33:05.131Z,1005.11
2018-05-15T07:34:05.105Z,1005.12
2018-05-15T07:35:05.128Z,1005.15
2018-05-15T07:36:05.106Z,1005.11
2018-05-15T07:37:05.129Z,1005.10
2018-05-15T07:38:05.129Z,1005.16
2018-05-15T07:39:05.034Z,1005.15
2018-05-15T07:40:05.066Z,1005.15
2018-05-15T07:41:05.065Z,1005.14
2018-05-15T07:42:05.132Z,1005.13
2018-05-15T07:43:05.065Z,1005.14
2018-05-15T07:44:05.155Z,1005.12
2018-05-15T07:45:05.142Z,1005.08
2018-05-15T07:46:05.067Z,1005.14
2018-05-15T07:47:05.068Z,1005.14
2018-05-15T07:48:05.144Z,1005.15
2018-05-15T07:49:05.090Z,1005.22
2018-05-15T07:50:05.107Z,1005.20
2018-05-15T07:51:05.172Z,1005.24
2018-05-15T07:52:05.036Z,1005.22
2018-05-15T07:53:05.098Z,1005.22
2018-05-15T07:54:05.106Z,1005.20
2018-05-15T07:55:05.107Z,1005.18
2018-05-15T07:56:05.079Z,1005.16
2018-05-15T07:57:05.115Z,1005.14
2018-05-15T07:58:05.140Z,1005.18
2018-05-15T07:59:05.166Z,1005.18
2018-05-15T08:00:05.152Z,1005.20
2018-05-15T08:01:05.077Z,1005.22
2018-05-15T08:02:05.180Z,1005.18
2018-05-15T08:03:05.150Z,1005.21
2018-05-15T08:04:05.147Z,1005.22
2018-05-15T08:05:05.080Z,1005.19
2018-05-15T08:06:05.103Z,1005.20
2018-05-15T08:07:05.042Z,1005.20
2018-05-15T08:08:05.152Z,1005.21
2018-05-15T08:09:05.150Z,1005.21
2018-05-15T08:10:05.098Z,1005.19
2018-05-15T08:11:05.086Z,1005.20
2018-05-15T08:12:05.150Z,1005.24
2018-05-15T08:13:05.151Z,1005.24
2018-05-15T08:14:05.151Z,1005.23
2018-05-15T08:15:05.086Z,1005.21
2018-05-15T08:16:05.155Z,1005.20
2018-05-15T08:17:05.155Z,1005.18
2018-05-15T08:18:05.102Z,1005.23
2018-05-15T08:19:05.169Z,1005.16
2018-05-15T08:20:05.125Z,1005.15
2018-05-15T08:21:05.136Z,1005.15
2018-05-15T08:22:05.077Z,1005.16
2018-05-15T08:23:05.163Z,1005.15
2018-05-15T08:24:05.101Z,1005.16
2018-05-15T08:25:05.156Z,1005.19
2018-05-15T08:26:05.125Z,1005.16
2018-05-15T08:27:05.175Z,1005.07
2018-05-15T08:28:05.139Z,1005.08
2018-05-15T08:29:05.132Z,1005.06
2018-05-15T08:30:05.055Z,1005.12
2018-05-15T08:31:05.141Z,1005.12
2018-05-15T08:32:05.099Z,1005.10
2018-05-15T08:33:05.094Z,1005.12
2018-05-15T08:34:05.057Z,1005.14
2018-05-15T08:35:05.117Z,1005.09
2018-05-15T08:36:05.031Z,1005.12
2018-05-15T08:37:05.091Z,1005.15
2018-05-15T08:38:05.149Z,1005.16
2018-05-15T08:39:05.097Z,1005.20
2018-05-15T08:40:05.067Z,1005.16
2018-05-15T08:41:05.102Z,1005.19
2018-05-15T08:42:05.167Z,1005.18
2018-05-15T08:43:05.159Z,1005.20
2018-05-15T08:44:05.123Z,1005.19
2018-05-15T08:45:05.102Z,1005.16
2018-05-15T08:46:05.075Z,1005.18
2018-05-15T08:47:05.167Z,1005.17
2018-05-15T08:48:05.079Z,1005.18
2018-05-15T08:49:05.163Z,1005.16
2018-05-15T08:50:05.080Z,1005.15
2018-05-15T08:51:05.148Z,1005.14
2018-05-15T08:52:05.179Z,1005.13
2018-05-15T08:53:05.152Z,1005.13
2018-05-15T08:54:05.104Z,1005.12
2018-05-15T08:55:05.175Z,1005.13
2018-05-15T08:56:05.086Z,1005.14
2018-05-15T08:57:05.181Z,1005.17
2018-05-15T08:58:05.178Z,1005.17
2018-05-15T08:59:05.082Z,1005.16
2018-05-15T09:00:05.207Z,1005.23
2018-05-15T09:01:05.202Z,1005.24
2018-05-15T09:02:05.189Z,1005.16
2018-05-15T09:03:05.146Z,1005.23
2018-05-15T09:04:05.087Z,1005.18
2018-05-15T09:05:05.223Z,1005.18
2018-05-15T09:06:05.141Z,1005.21
2018-05-15T09:07:05.160Z,1005.25
2018-05-15T09:08:05.163Z,1005.19
2018-05-15T09:09:05.108Z,1005.14
2018-05-15T09:10:05.163Z,1005.23
2018-05-15T09:11:05.183Z,1005.26
2018-05-15T09:12:05.087Z,1005.28
2018-05-15T09:13:05.207Z,1005.22
2018-05-15T09:14:05.211Z,1005.24
2018-05-15T09:15:05.218Z,1005.24
2018-05-15T09:16:05.206Z,1005.24
2018-05-15T09:17:05.197Z,1005.28
2018-05-15T09:18:05.101Z,1005.26
2018-05-15T09:19:05.147Z,1005.20
2018-05-15T09:20:05.104Z,1005.23
2018-05-15T09:21:05.145Z,1005.29
2018-05-15T09:22:05.186Z,1005.24
2018-05-15T09:23:05.123Z,1005.20
2018-05-15T09:24:05.186Z,1005.21
2018-05-15T09:25:05.189Z,1005.15
2018-05-15T09:26:05.187Z,1005.18
2018-05-15T09:27:05.229Z,1005.13
2018-05-15T09:28:05.133Z,1005.13
2018-05-15T09:29:05.235Z,1005.12
2018-05-15T09:30:05.101Z,1005.16
2018-05-15T09:31:05.074Z,1005.18
2018-05-15T09:32:05.136Z,1005.17
2018-05-15T09:33:05.109Z,1005.12
2018-05-15T09:34:05.068Z,1005.18
2018-05-15T09:35:05.091Z,1005.08
2018-05-15T09:36:05.202Z,1005.11
2018-05-15T09:37:05.109Z,1005.12
2018-05-15T09:38:05.102Z,1005.13
2018-05-15T09:39:05.196Z,1005.15
2018-05-15T09:40:05.208Z,1005.23
2018-05-15T09:41:05.209Z,1005.24
2018-05-15T09:42:05.147Z,1005.15
2018-05-15T09:43:05.212Z,1005.15
2018-05-15T09:44:05.147Z,1005.13
2018-05-15T09:45:05.141Z,1005.10
2018-05-15T09:46:05.250Z,1005.09
2018-05-15T09:47:05.208Z,1005.14
2018-05-15T09:48:05.212Z,1005.12
2018-05-15T09:49:05.213Z,1005.19
2018-05-15T09:50:05.176Z,1005.16
2018-05-15T09:51:05.196Z,1005.09
2018-05-15T09:52:05.137Z,1005.04
2018-05-15T09:53:05.229Z,1005.10
2018-05-15T09:54:05.237Z,1005.10
2018-05-15T09:55:05.186Z,1005.07
2018-05-15T09:56:05.136Z,1005.03
2018-05-15T09:57:05.196Z,1005.12
2018-05-15T09:58:05.255Z,1005.08
2018-05-15T09:59:05.190Z,1005.20
2018-05-15T10:00:05.191Z,1005.12
2018-05-15T10:01:05.160Z,1005.17
2018-05-15T10:02:05.237Z,1005.15
2018-05-15T10:03:05.195Z,1005.15
2018-05-15T10:04:05.182Z,1005.17
2018-05-15T10:05:05.223Z,1005.14
2018-05-15T10:06:05.251Z,1005.15
2018-05-15T10:07:05.182Z,1005.18
2018-05-15T10:08:05.362Z,1005.16
2018-05-15T10:09:05.190Z,1005.15
2018-05-15T10:10:05.198Z,1005.16
2018-05-15T10:11:05.230Z,1005.15
2018-05-15T10:12:05.183Z,1005.10
2018-05-15T10:13:05.225Z,1005.17
2018-05-15T10:14:05.297Z,1005.06
2018-05-15T10:15:05.191Z,1005.07
2018-05-15T10:16:05.266Z,1005.13
2018-05-15T10:17:05.198Z,1005.05
2018-05-15T10:18:05.161Z,1005.01
2018-05-15T10:19:05.257Z,1004.98
2018-05-15T10:20:05.323Z,1004.91
2018-05-15T10:21:05.141Z,1004.91
2018-05-15T10:22:05.159Z,1004.93
2018-05-15T10:23:05.185Z,1004.92
2018-05-15T10:24:05.131Z,1004.92
2018-05-15T10:25:05.196Z,1004.95
2018-05-15T10:26:05.219Z,1004.96
2018-05-15T10:27:05.116Z,1004.88
2018-05-15T10:28:05.188Z,1004.88
2018-05-15T10:29:05.175Z,1004.91
2018-05-15T10:30:05.333Z,1004.89
2018-05-15T10:31:05.212Z,1004.85
2018-05-15T10:32:05.193Z,1004.82
2018-05-15T10:33:05.139Z,1004.83
2018-05-15T10:34:05.270Z,1004.80
2018-05-15T10:35:05.263Z,1004.90
2018-05-15T10:36:05.283Z,1004.84
2018-05-15T10:37:05.291Z,1004.87
2018-05-15T10:38:05.222Z,1004.83
2018-05-15T10:39:05.322Z,1004.85
2018-05-15T10:40:05.144Z,1004.87
2018-05-15T10:41:05.149Z,1004.84
2018-05-15T10:42:05.239Z,1004.83
2018-05-15T10:43:05.241Z,1004.85
2018-05-15T10:44:05.250Z,1004.86
2018-05-15T10:45:05.232Z,1004.82
2018-05-15T10:46:05.246Z,1004.81
2018-05-15T10:47:05.237Z,1004.87
2018-05-15T10:48:05.189Z,1004.84
2018-05-15T10:49:05.242Z,1004.84
2018-05-15T10:50:05.252Z,1004.89
2018-05-15T10:51:05.197Z,1004.88
2018-05-15T10:52:05.251Z,1004.88
2018-05-15T10:53:05.186Z,1004.88
2018-05-15T10:54:05.151Z,1004.84
2018-05-15T10:55:05.256Z,1004.84
2018-05-15T10:56:05.188Z,1004.79
2018-05-15T10:57:05.259Z,1004.79
2018-05-15T10:58:05.230Z,1004.77
2018-05-15T10:59:05.194Z,1004.78
2018-05-15T11:00:05.214Z,1004.76
2018-05-15T11:01:05.193Z,1004.83
2018-05-15T11:02:05.253Z,1004.78
2018-05-15T11:03:05.150Z,1004.79
2018-05-15T11:04:05.249Z,1004.83
2018-05-15T11:05:05.194Z,1004.79
2018-05-15T11:06:05.241Z,1004.79
2018-05-15T11:07:05.215Z,1004.78
2018-05-15T11:08:05.217Z,1004.70
2018-05-15T11:09:05.199Z,1004.74
2018-05-15T11:10:05.202Z,1004.70
2018-05-15T11:11:05.228Z,1004.66
2018-05-15T11:12:05.237Z,1004.67
2018-05-15T11:13:05.307Z,1004.65
2018-05-15T11:14:05.299Z,1004.62
2018-05-15T11:15:05.163Z,1004.63
2018-05-15T11:16:05.290Z,1004.65
2018-05-15T11:17:05.188Z,1004.60
2018-05-15T11:18:05.242Z,1004.59
2018-05-15T11:19:05.283Z,1004.58
2018-05-15T11:20:05.245Z,1004.54
2018-05-15T11:21:05.295Z,1004.57
2018-05-15T11:22:05.291Z,1004.51
2018-05-15T11:23:05.303Z,1004.53
2018-05-15T11:24:05.273Z,1004.54
2018-05-15T11:25:05.293Z,1004.55
2018-05-15T11:26:05.184Z,1004.52
2018-05-15T11:27:05.211Z,1004.54
2018-05-15T11:28:05.253Z,1004.50
2018-05-15T11:29:05.298Z,1004.55
2018-05-15T11:30:05.298Z,1004.52
2018-05-15T11:31:05.236Z,1004.50
2018-05-15T11:32:05.296Z,1004.51
2018-05-15T11:33:05.231Z,1004.51
2018-05-15T11:34:05.240Z,1004.55
2018-05-15T11:35:05.248Z,1004.52
2018-05-15T11:36:05.368Z,1004.54
2018-05-15T11:37:05.301Z,1004.53
2018-05-15T11:38:05.288Z,1004.49
2018-05-15T11:39:05.314Z,1004.48
2018-05-15T11:40:05.246Z,1004.42
2018-05-15T11:41:05.215Z,1004.42
2018-05-15T11:42:05.290Z,1004.46
2018-05-15T11:43:05.214Z,1004.49
2018-05-15T11:44:05.287Z,1004.53
2018-05-15T11:45:05.292Z,1004.47
2018-05-15T11:46:05.241Z,1004.51
2018-05-15T11:47:05.288Z,1004.44
2018-05-15T11:48:05.819Z,1004.46
2018-05-15T11:49:06.467Z,1004.43
2018-05-15T11:50:06.638Z,1004.51
2018-05-15T11:51:06.117Z,1004.43
2018-05-15T11:52:06.076Z,1004.37
2018-05-15T11:53:05.954Z,1004.37
2018-05-15T11:54:05.249Z,1004.31
2018-05-15T11:55:05.231Z,1004.37
2018-05-15T11:56:05.291Z,1004.32
2018-05-15T11:57:05.265Z,1004.29
2018-05-15T11:58:05.249Z,1004.22
2018-05-15T11:59:05.307Z,1004.25
2018-05-15T12:00:05.400Z,1004.29
2018-05-15T12:01:05.287Z,1004.31
2018-05-15T12:02:05.290Z,1004.32
2018-05-15T12:03:05.289Z,1004.28
2018-05-15T12:04:05.261Z,1004.23
2018-05-15T12:05:05.291Z,1004.26
2018-05-15T12:06:05.287Z,1004.15
2018-05-15T12:07:05.288Z,1004.24
2018-05-15T12:08:05.356Z,1004.24